Time;durP1;ratioP1;P1;durP2;ratioP2;P2;SDS_P1;SDS_P2;PMS_P1;PMS_P2;Temp;Humidity;BMP_temperature;BMP_pressure;BME280_temperature;BME280_humidity;BME280_pressure;Samples;Min_cycle;Max_cycle;Signal;HPM_P1;HPM_P2
2023/11/10 00:01:16;;;;;;;14.02;6.90;;;11.70;99.90;;;;;;5055284;28;20032;-72
2023/11/10 00:03:42;;;;;;;13.07;6.20;;;11.70;99.90;;;;;;5055579;28;20355;-72
2023/11/10 00:06:12;;;;;;;10.43;6.30;;;11.70;99.90;;;;;;5055680;28;20041;-70
2023/11/10 00:08:38;;;;;;;10.73;7.07;;;11.80;99.90;;;;;;5055439;28;20037;-70
2023/11/10 00:11:04;;;;;;;14.10;7.47;;;11.70;99.90;;;;;;5055439;28;20043;-72
2023/11/10 00:13:29;;;;;;;15.70;8.55;;;11.70;99.90;;;;;;5054839;28;20049;-72
2023/11/10 00:15:55;;;;;;;13.70;8.50;;;11.70;99.90;;;;;;5054883;28;20040;-72
2023/11/10 00:18:21;;;;;;;17.10;9.77;;;11.80;99.90;;;;;;5055400;28;20086;-72
2023/11/10 00:20:47;;;;;;;18.30;9.93;;;11.80;99.90;;;;;;5055198;28;20037;-72
2023/11/10 00:23:13;;;;;;;16.30;9.15;;;11.80;99.90;;;;;;5054826;28;20061;-72
2023/11/10 00:25:39;;;;;;;14.95;8.80;;;11.70;99.90;;;;;;5054401;28;20033;-72
2023/11/10 00:28:05;;;;;;;17.20;8.32;;;11.80;99.90;;;;;;5054282;28;20033;-72
2023/11/10 00:30:30;;;;;;;14.50;8.32;;;11.80;99.90;;;;;;5054221;28;20041;-72
2023/11/10 00:32:56;;;;;;;9.15;7.20;;;11.80;99.90;;;;;;5054946;28;20396;-72
2023/11/10 00:35:22;;;;;;;13.27;6.53;;;11.80;99.90;;;;;;5055001;28;20598;-72
2023/11/10 00:37:50;;;;;;;12.35;6.60;;;11.80;99.90;;;;;;5054742;28;20075;-71
2023/11/10 00:40:16;;;;;;;10.63;6.63;;;11.70;99.90;;;;;;5055008;28;20032;-72
2023/11/10 00:42:41;;;;;;;12.38;6.65;;;11.80;99.90;;;;;;5054556;28;20389;-72
2023/11/10 00:45:08;;;;;;;9.70;6.35;;;11.70;99.90;;;;;;5054538;28;20037;-72
2023/11/10 00:47:34;;;;;;;10.85;5.95;;;11.70;99.90;;;;;;5054556;28;20029;-72
2023/11/10 00:50:00;;;;;;;8.95;5.03;;;11.70;99.90;;;;;;5054477;28;20048;-72
2023/11/10 00:52:26;;;;;;;10.65;4.45;;;11.70;99.90;;;;;;5023214;28;20034;-72
2023/11/10 00:54:52;;;;;;;11.27;4.35;;;11.70;99.90;;;;;;5035488;28;20052;-72
2023/11/10 00:57:18;;;;;;;6.18;3.72;;;11.70;99.90;;;;;;5035734;28;20032;-72
2023/11/10 00:59:44;;;;;;;10.18;3.63;;;11.70;99.90;;;;;;5034982;28;20037;-72
2023/11/10 01:02:12;;;;;;;6.50;4.28;;;11.70;99.90;;;;;;5035167;28;20036;-71
2023/11/10 01:04:47;;;;;;;8.98;4.10;;;11.60;99.90;;;;;;5034941;28;20033;-72
2023/11/10 01:07:16;;;;;;;7.07;3.97;;;11.70;99.90;;;;;;5034864;28;20112;-71
2023/11/10 01:09:42;;;;;;;7.78;3.95;;;11.60;99.90;;;;;;5016988;28;20041;-72
2023/11/10 01:12:13;;;;;;;7.40;4.10;;;11.60;99.90;;;;;;5034623;28;20046;-71
2023/11/10 01:14:52;;;;;;;9.05;4.18;;;11.60;99.90;;;;;;5034746;28;20032;-72
2023/11/10 01:17:27;;;;;;;6.93;4.07;;;11.60;99.90;;;;;;5016726;28;20033;-72
2023/11/10 01:19:58;;;;;;;9.25;4.30;;;11.60;99.90;;;;;;5034793;28;20121;-72
2023/11/10 01:22:28;;;;;;;9.15;3.55;;;11.60;99.90;;;;;;5034356;28;20026;-72
2023/11/10 01:24:57;;;;;;;6.38;3.58;;;11.60;99.90;;;;;;5034355;28;20072;-72
2023/11/10 01:27:25;;;;;;;7.45;3.83;;;11.60;99.90;;;;;;5034074;28;20029;-71
2023/11/10 01:29:54;;;;;;;9.18;3.22;;;11.60;99.90;;;;;;5034340;28;20486;-72
2023/11/10 01:32:23;;;;;;;7.70;3.00;;;11.60;99.90;;;;;;5034201;28;20037;-72
2023/11/10 01:34:50;;;;;;;10.98;3.13;;;11.60;99.90;;;;;;5033992;28;20450;-72
2023/11/10 01:37:16;;;;;;;5.43;3.08;;;11.60;99.90;;;;;;5033519;28;20025;-72
2023/11/10 01:39:43;;;;;;;6.22;2.83;;;11.60;99.90;;;;;;5033093;28;20060;-72
2023/11/10 01:42:11;;;;;;;6.32;3.03;;;11.60;99.90;;;;;;5033826;28;20037;-72
2023/11/10 01:44:43;;;;;;;4.82;2.83;;;11.60;99.90;;;;;;5016323;28;20436;-72
2023/11/10 01:47:10;;;;;;;5.50;2.63;;;11.60;99.90;;;;;;5016190;28;20030;-72
2023/11/10 01:49:38;;;;;;;5.68;3.00;;;11.60;99.90;;;;;;5033513;28;20049;-72
2023/11/10 01:52:05;;;;;;;6.68;3.10;;;11.60;99.90;;;;;;5033532;28;20040;-72
2023/11/10 01:54:35;;;;;;;4.90;2.65;;;11.60;99.90;;;;;;5033459;28;20155;-72
2023/11/10 01:57:04;;;;;;;5.07;2.72;;;11.60;99.90;;;;;;5033398;28;20103;-72
2023/11/10 01:59:32;;;;;;;4.60;2.88;;;11.60;99.90;;;;;;5030202;28;20041;-72
2023/11/10 02:01:58;;;;;;;5.07;2.63;;;11.60;99.90;;;;;;5012806;28;20094;-72
2023/11/10 02:04:24;;;;;;;7.82;3.00;;;11.60;99.90;;;;;;5031379;28;20112;-73
2023/11/10 02:06:51;;;;;;;9.23;2.83;;;11.60;99.90;;;;;;5033255;28;20456;-73
2023/11/10 02:09:18;;;;;;;5.53;2.55;;;11.60;99.90;;;;;;5033039;28;20650;-72
2023/11/10 02:11:44;;;;;;;6.90;2.60;;;11.60;99.90;;;;;;5032966;28;20048;-72
2023/11/10 02:14:12;;;;;;;5.85;2.20;;;11.60;99.90;;;;;;5032757;28;20417;-72
2023/11/10 02:16:39;;;;;;;6.45;2.05;;;11.60;99.90;;;;;;5033029;28;20431;-73
2023/11/10 02:19:07;;;;;;;4.70;1.98;;;11.60;99.90;;;;;;5032740;28;20486;-73
2023/11/10 02:21:33;;;;;;;5.38;2.50;;;11.60;99.90;;;;;;5032521;28;20128;-72
2023/11/10 02:24:08;;;;;;;5.38;2.38;;;11.60;99.90;;;;;;5033031;28;20073;-72
2023/11/10 02:26:34;;;;;;;3.88;1.98;;;11.60;99.90;;;;;;5032989;28;20038;-72
2023/11/10 02:29:01;;;;;;;3.92;1.90;;;11.60;99.90;;;;;;5014978;28;20048;-72
2023/11/10 02:31:27;;;;;;;5.60;2.20;;;11.60;99.90;;;;;;5032722;28;20060;-72
2023/11/10 02:33:53;;;;;;;4.25;1.83;;;11.60;99.90;;;;;;5033603;28;20108;-72
2023/11/10 02:36:22;;;;;;;5.50;2.17;;;11.60;99.90;;;;;;5033722;28;20032;-72
2023/11/10 02:38:48;;;;;;;5.95;2.28;;;11.50;99.90;;;;;;5015661;28;20026;-71
2023/11/10 02:41:14;;;;;;;5.10;2.20;;;11.50;99.90;;;;;;5033363;28;20104;-71
2023/11/10 02:43:46;;;;;;;4.32;1.80;;;11.50;99.90;;;;;;5033115;28;20430;-72
2023/11/10 02:46:23;;;;;;;4.47;2.22;;;11.50;99.90;;;;;;5033343;28;20036;-72
2023/11/10 02:49:25;;;;;;;5.20;2.05;;;11.60;99.90;;;;;;5033051;28;20029;-71
2023/11/10 02:52:00;;;;;;;3.50;1.83;;;11.50;99.90;;;;;;5033202;28;20052;-72
2023/11/10 02:54:29;;;;;;;3.13;1.70;;;11.60;99.90;;;;;;5033136;28;20132;-72
2023/11/10 02:57:09;;;;;;;5.82;1.80;;;11.60;99.90;;;;;;5033556;28;20402;-71
2023/11/10 02:59:44;;;;;;;4.68;1.92;;;11.50;99.90;;;;;;5033065;28;20528;-71
2023/11/10 03:02:14;;;;;;;5.20;1.77;;;11.50;99.90;;;;;;5033272;28;20025;-71
2023/11/10 03:04:40;;;;;;;3.40;1.70;;;11.50;99.90;;;;;;5032736;28;20492;-72
2023/11/10 03:07:07;;;;;;;5.03;2.05;;;11.40;99.90;;;;;;5033004;28;20026;-72
2023/11/10 03:09:44;;;;;;;4.20;2.03;;;11.50;99.90;;;;;;5032901;28;20187;-72
2023/11/10 03:12:10;;;;;;;5.43;2.00;;;11.50;99.90;;;;;;5032987;28;20405;-72
2023/11/10 03:15:05;;;;;;;4.80;2.58;;;11.50;99.90;;;;;;5032861;28;20040;-73
2023/11/10 03:17:31;;;;;;;3.88;2.60;;;11.40;99.90;;;;;;5023880;28;20038;-72
2023/11/10 03:19:58;;;;;;;7.55;2.92;;;11.40;99.90;;;;;;5032714;28;20038;-72
2023/11/10 03:22:23;;;;;;;4.60;3.55;;;11.40;99.90;;;;;;5032894;28;20041;-72
2023/11/10 03:24:49;;;;;;;6.53;4.68;;;11.50;99.90;;;;;;5014681;28;20042;-72
2023/11/10 03:27:16;;;;;;;6.35;5.15;;;11.50;99.90;;;;;;5032499;28;20436;-72
2023/11/10 03:29:42;;;;;;;10.98;4.53;;;11.50;99.90;;;;;;5031876;28;20100;-72
2023/11/10 03:32:09;;;;;;;6.60;3.97;;;11.40;99.90;;;;;;5032345;28;20048;-72
2023/11/10 03:34:44;;;;;;;8.32;4.05;;;11.40;99.90;;;;;;5032125;28;20045;-72
2023/11/10 03:37:11;;;;;;;4.45;3.20;;;11.50;99.90;;;;;;5032491;28;20071;-72
2023/11/10 03:39:37;;;;;;;4.63;3.28;;;11.50;99.90;;;;;;5032284;28;20045;-72
2023/11/10 03:42:03;;;;;;;5.55;3.20;;;11.50;99.90;;;;;;5032021;28;20033;-71
2023/11/10 03:44:30;;;;;;;5.32;2.90;;;11.50;99.90;;;;;;5032111;28;20095;-72
2023/11/10 03:46:56;;;;;;;3.47;2.08;;;11.50;99.90;;;;;;5032404;28;20022;-72
2023/11/10 03:49:23;;;;;;;4.00;2.20;;;11.60;99.90;;;;;;5032108;28;20047;-72
2023/11/10 03:51:50;;;;;;;3.42;1.65;;;11.60;99.90;;;;;;5032328;28;20033;-73
2023/11/10 03:54:16;;;;;;;7.00;1.60;;;11.60;99.90;;;;;;5031751;28;20087;-72
2023/11/10 03:56:43;;;;;;;2.28;1.40;;;11.60;99.90;;;;;;5031723;28;20068;-72
2023/11/10 03:59:09;;;;;;;2.50;1.30;;;11.60;99.90;;;;;;5031784;28;20033;-72
2023/11/10 04:01:36;;;;;;;1.85;1.15;;;11.60;99.90;;;;;;5032957;28;20064;-72
2023/11/10 04:04:03;;;;;;;2.35;1.17;;;11.60;99.90;;;;;;5029273;28;20401;-72
2023/11/10 04:06:29;;;;;;;5.45;2.00;;;11.60;99.90;;;;;;5055306;28;20029;-72
2023/11/10 04:08:55;;;;;;;6.55;3.40;;;11.60;99.90;;;;;;5055550;28;20072;-72
2023/11/10 04:11:22;;;;;;;5.35;4.22;;;11.60;99.90;;;;;;5055214;28;20036;-72
2023/11/10 04:13:48;;;;;;;5.53;3.92;;;11.60;99.90;;;;;;5037521;28;20481;-72
2023/11/10 04:16:23;;;;;;;4.43;3.80;;;11.60;99.90;;;;;;5055992;28;20043;-72
2023/11/10 04:18:50;;;;;;;6.07;3.35;;;11.60;99.90;;;;;;5056194;28;20036;-72
2023/11/10 04:21:18;;;;;;;4.47;3.53;;;11.60;99.90;;;;;;5056029;28;20374;-72
2023/11/10 04:23:44;;;;;;;5.78;4.18;;;11.60;99.90;;;;;;5055870;28;20440;-71
2023/11/10 04:26:11;;;;;;;11.88;4.10;;;11.60;99.90;;;;;;5055800;28;20389;-70
2023/11/10 04:28:41;;;;;;;4.90;4.25;;;11.60;99.90;;;;;;5055613;28;20073;-71
2023/11/10 04:31:14;;;;;;;6.60;4.05;;;11.60;99.90;;;;;;5055771;28;20467;-72
2023/11/10 04:33:43;;;;;;;4.75;4.05;;;11.60;99.90;;;;;;5055386;28;20060;-72
2023/11/10 04:36:12;;;;;;;4.63;3.72;;;11.50;99.90;;;;;;5055463;28;20029;-72
2023/11/10 04:38:48;;;;;;;5.80;3.65;;;11.60;99.90;;;;;;5055443;28;20457;-71
2023/11/10 04:41:42;;;;;;;3.55;2.80;;;11.60;99.90;;;;;;5054950;28;20112;-72
2023/11/10 04:44:10;;;;;;;5.70;1.80;;;11.60;99.90;;;;;;5054296;28;20392;-72
2023/11/10 04:46:43;;;;;;;3.95;1.52;;;11.60;99.90;;;;;;5054965;28;20029;-72
2023/11/10 04:49:12;;;;;;;3.75;1.60;;;11.60;99.90;;;;;;5054779;28;20048;-72
2023/11/10 04:51:41;;;;;;;3.03;1.52;;;11.60;99.90;;;;;;5054903;28;20037;-73
2023/11/10 04:54:07;;;;;;;3.65;1.75;;;11.60;99.90;;;;;;5054903;28;20128;-73
2023/11/10 04:56:43;;;;;;;3.35;1.70;;;11.60;99.90;;;;;;5055204;28;20520;-72
2023/11/10 04:59:12;;;;;;;4.93;1.85;;;11.60;99.90;;;;;;5054710;28;20124;-72
2023/11/10 05:01:44;;;;;;;6.85;1.73;;;11.60;99.90;;;;;;5054534;28;20047;-72
2023/11/10 05:04:12;;;;;;;2.75;1.65;;;11.60;99.90;;;;;;5054846;28;20032;-72
2023/11/10 05:06:41;;;;;;;6.70;2.40;;;11.60;99.90;;;;;;5054796;28;20856;-72
2023/11/10 05:09:08;;;;;;;3.13;1.92;;;11.60;99.90;;;;;;5036546;28;20584;-72
2023/11/10 05:11:34;;;;;;;4.13;1.85;;;11.60;99.90;;;;;;5054393;28;20069;-72
2023/11/10 05:14:01;;;;;;;3.75;1.75;;;11.60;99.90;;;;;;5054521;28;20032;-72
2023/11/10 05:16:29;;;;;;;4.18;2.22;;;11.60;99.90;;;;;;5054470;28;20062;-72
2023/11/10 05:18:57;;;;;;;6.85;4.13;;;11.60;99.90;;;;;;5054176;28;20055;-72
2023/11/10 05:21:23;;;;;;;3.88;2.75;;;11.60;99.90;;;;;;5054034;28;20029;-72
2023/11/10 05:23:49;;;;;;;4.05;1.60;;;11.60;99.90;;;;;;5054276;28;20029;-72
2023/11/10 05:26:15;;;;;;;4.43;3.90;;;11.50;99.90;;;;;;5054240;28;20037;-72
2023/11/10 05:28:41;;;;;;;6.10;5.57;;;11.60;99.90;;;;;;5053640;28;20029;-72
2023/11/10 05:31:06;;;;;;;3.63;2.63;;;11.60;99.90;;;;;;5053938;28;20160;-72
2023/11/10 05:33:32;;;;;;;3.47;2.70;;;11.60;99.90;;;;;;5053975;28;20029;-72
2023/11/10 05:36:00;;;;;;;5.90;2.60;;;11.60;99.90;;;;;;5053709;28;20104;-72
2023/11/10 05:38:26;;;;;;;4.43;3.88;;;11.60;99.90;;;;;;5053970;28;20032;-72
2023/11/10 05:40:52;;;;;;;6.40;5.80;;;11.60;99.90;;;;;;5053578;28;20041;-72
2023/11/10 05:43:17;;;;;;;3.33;2.10;;;11.60;99.90;;;;;;5053578;28;20025;-72
2023/11/10 05:45:43;;;;;;;2.28;1.30;;;11.60;99.90;;;;;;5053551;28;20366;-72
2023/11/10 05:48:10;;;;;;;3.97;3.42;;;11.60;99.90;;;;;;5036023;28;20029;-72
2023/11/10 05:50:36;;;;;;;3.60;2.15;;;11.60;99.90;;;;;;5053414;28;20086;-71
2023/11/10 05:53:01;;;;;;;3.33;2.30;;;11.60;99.90;;;;;;5053423;28;20037;-72
2023/11/10 05:55:27;;;;;;;3.67;2.53;;;11.60;99.90;;;;;;5053384;28;20063;-72
2023/11/10 05:57:53;;;;;;;4.65;2.00;;;11.60;99.90;;;;;;5053336;28;20025;-72
2023/11/10 06:00:19;;;;;;;2.75;1.95;;;11.60;99.90;;;;;;5054113;28;20040;-72
2023/11/10 06:02:47;;;;;;;3.65;1.77;;;11.60;99.90;;;;;;5054193;28;20087;-71
2023/11/10 06:05:13;;;;;;;4.57;1.55;;;11.60;99.90;;;;;;5054111;28;20035;-71
2023/11/10 06:07:38;;;;;;;2.20;1.50;;;11.60;99.90;;;;;;5053735;28;20025;-70
2023/11/10 06:13:46;;;;;;;3.38;1.92;;;11.60;99.90;;;;;;5004346;28;20495;-71
2023/11/10 06:16:25;;;;;;;5.88;1.88;;;11.60;99.90;;;;;;5013687;28;20387;-72
2023/11/10 06:18:54;;;;;;;4.65;1.95;;;11.60;99.90;;;;;;5013136;28;20057;-71
2023/11/10 06:21:27;;;;;;;5.22;1.90;;;11.60;99.90;;;;;;5013533;28;20049;-72
2023/11/10 06:23:54;;;;;;;3.58;1.80;;;11.60;99.90;;;;;;5012930;28;20085;-72
2023/11/10 06:26:26;;;;;;;4.53;1.67;;;11.60;99.90;;;;;;5013575;28;20034;-71
2023/11/10 06:29:05;;;;;;;2.50;1.48;;;11.60;99.90;;;;;;5012875;28;20045;-71
2023/11/10 06:31:33;;;;;;;3.92;1.50;;;11.60;99.90;;;;;;5012859;28;20027;-72
2023/11/10 06:34:02;;;;;;;4.75;1.73;;;11.60;99.90;;;;;;5012834;28;20030;-72
2023/11/10 06:36:34;;;;;;;4.45;2.13;;;11.60;99.90;;;;;;5013210;28;20105;-72
2023/11/10 06:39:03;;;;;;;3.17;2.03;;;11.60;99.90;;;;;;5012969;28;20113;-71
2023/11/10 06:41:32;;;;;;;5.60;2.15;;;11.60;99.90;;;;;;5012843;28;20478;-72
2023/11/10 06:43:58;;;;;;;4.03;2.28;;;11.60;99.90;;;;;;5013106;28;20541;-72
2023/11/10 06:46:26;;;;;;;3.38;2.47;;;11.70;99.90;;;;;;5013176;28;20034;-72
2023/11/10 06:48:55;;;;;;;3.38;2.38;;;11.60;99.90;;;;;;5012887;28;20036;-72
2023/11/10 06:51:21;;;;;;;5.90;2.42;;;11.60;99.90;;;;;;5012942;28;20459;-72
2023/11/10 06:53:47;;;;;;;5.65;2.35;;;11.70;99.90;;;;;;5012871;28;20108;-71
2023/11/10 06:56:13;;;;;;;5.57;2.45;;;11.70;99.90;;;;;;5012746;28;20030;-71
2023/11/10 06:58:42;;;;;;;4.13;3.42;;;11.70;99.90;;;;;;5013110;28;20474;-72
2023/11/10 07:01:09;;;;;;;4.50;3.42;;;11.70;99.90;;;;;;5013029;28;20034;-71
2023/11/10 07:03:35;;;;;;;4.85;3.10;;;11.70;99.90;;;;;;5012853;28;20069;-72
2023/11/10 07:06:03;;;;;;;3.70;2.70;;;11.70;99.90;;;;;;5012853;28;20041;-72
2023/11/10 07:08:29;;;;;;;3.80;2.70;;;11.70;99.90;;;;;;5012974;28;20113;-72
2023/11/10 07:10:58;;;;;;;3.33;2.95;;;11.70;99.90;;;;;;5013155;28;20172;-72
2023/11/10 07:13:24;;;;;;;6.03;2.65;;;11.70;99.90;;;;;;5011321;28;20375;-72
2023/11/10 07:15:50;;;;;;;4.10;3.15;;;11.70;99.90;;;;;;5012644;28;20034;-72
2023/11/10 07:18:17;;;;;;;3.55;2.70;;;11.70;99.90;;;;;;5012698;28;20036;-72
2023/11/10 07:20:44;;;;;;;5.57;2.50;;;11.70;99.90;;;;;;5012676;28;20034;-72
2023/11/10 07:23:11;;;;;;;4.78;3.03;;;11.70;99.90;;;;;;5011189;28;20112;-72
2023/11/10 07:25:37;;;;;;;4.25;2.38;;;11.80;99.90;;;;;;5012610;28;20541;-72
2023/11/10 07:28:04;;;;;;;5.28;2.70;;;11.80;99.90;;;;;;5012662;28;20129;-71
2023/11/10 07:30:30;;;;;;;4.70;2.70;;;11.80;99.90;;;;;;5012324;28;20073;-72
2023/11/10 07:32:55;;;;;;;4.47;2.92;;;11.80;99.90;;;;;;5012250;28;20034;-72
2023/11/10 07:35:22;;;;;;;4.00;2.65;;;11.80;99.90;;;;;;5012205;28;20109;-71
2023/11/10 07:37:48;;;;;;;4.45;2.65;;;11.80;99.90;;;;;;5015343;28;20026;-71
2023/11/10 07:40:17;;;;;;;9.60;2.75;;;11.80;99.90;;;;;;5015889;28;20038;-71
2023/11/10 07:42:44;;;;;;;5.22;3.00;;;11.80;99.90;;;;;;5016498;28;20030;-72
2023/11/10 07:45:17;;;;;;;4.20;3.20;;;11.80;99.90;;;;;;5016808;28;20034;-72
2023/11/10 07:47:47;;;;;;;7.50;3.03;;;11.90;99.90;;;;;;5015398;28;20586;-71
2023/11/10 07:50:14;;;;;;;4.45;3.53;;;11.90;99.90;;;;;;5016638;28;20451;-70
2023/11/10 07:52:47;;;;;;;4.25;3.40;;;11.90;99.90;;;;;;5016710;28;20106;-72
2023/11/10 07:55:13;;;;;;;;;;;11.90;99.90;;;;;;5017039;28;20590;-72
2023/11/10 07:57:51;;;;;;;6.75;3.10;;;11.90;99.90;;;;;;5016227;28;19970;-71
2023/11/10 08:00:18;;;;;;;7.45;2.53;;;11.90;99.90;;;;;;5016394;28;20034;-72
2023/11/10 08:03:30;;;;;;;5.97;2.45;;;11.90;99.90;;;;;;5016536;28;20037;-72
2023/11/10 08:05:59;;;;;;;3.92;2.30;;;11.90;99.90;;;;;;5003378;28;20079;-72
2023/11/10 08:08:25;;;;;;;6.82;2.95;;;12.00;99.90;;;;;;5015883;28;20030;-72
2023/11/10 08:10:57;;;;;;;5.57;2.20;;;12.00;99.90;;;;;;5015161;28;20042;-72
2023/11/10 08:13:23;;;;;;;4.88;2.47;;;12.00;99.90;;;;;;5052860;28;20053;-71
2023/11/10 08:15:52;;;;;;;6.60;2.40;;;12.10;99.90;;;;;;5055236;28;20469;-72
2023/11/10 08:18:36;;;;;;;6.10;2.85;;;12.10;99.90;;;;;;5055544;28;20029;-72
2023/11/10 08:21:20;;;;;;;3.60;2.25;;;12.10;99.90;;;;;;5055553;28;20041;-72
2023/11/10 08:24:07;;;;;;;6.45;2.47;;;12.10;99.90;;;;;;5037175;28;20120;-72
2023/11/10 08:26:33;;;;;;;3.60;1.92;;;12.20;99.90;;;;;;5041238;28;20079;-72
2023/11/10 08:28:59;;;;;;;3.65;2.40;;;12.20;99.90;;;;;;5055091;28;20090;-72
2023/11/10 08:31:25;;;;;;;8.40;2.97;;;12.20;99.90;;;;;;5037250;28;20500;-72
2023/11/10 08:33:54;;;;;;;12.57;3.88;;;12.30;99.90;;;;;;5055165;28;20111;-72
2023/11/10 08:36:22;;;;;;;6.75;3.10;;;12.30;99.90;;;;;;5055289;28;20033;-72
2023/11/10 08:38:51;;;;;;;4.18;1.70;;;12.30;99.90;;;;;;5055216;28;20025;-72
2023/11/10 08:41:18;;;;;;;2.10;0.70;;;12.40;99.90;;;;;;5053914;28;20441;-72
2023/11/10 08:43:45;;;;;;;1.73;0.50;;;12.40;99.90;;;;;;5035513;28;20393;-72
2023/11/10 08:46:11;;;;;;;1.05;0.60;;;12.40;99.90;;;;;;5053249;28;20040;-72
2023/11/10 08:48:38;;;;;;;1.75;0.88;;;12.40;99.90;;;;;;5053275;28;20031;-72
2023/11/10 08:51:04;;;;;;;1.15;0.70;;;12.50;99.90;;;;;;5054255;28;20384;-72
2023/11/10 08:53:30;;;;;;;2.63;0.60;;;12.50;99.90;;;;;;5052552;28;20416;-72
2023/11/10 08:55:57;;;;;;;5.32;0.70;;;12.50;99.90;;;;;;5052384;28;20108;-72
2023/11/10 08:58:23;;;;;;;1.60;0.65;;;12.50;99.90;;;;;;5052654;28;20091;-72
2023/11/10 09:00:49;;;;;;;1.40;0.68;;;12.60;99.90;;;;;;5052543;28;20568;-72
2023/11/10 09:03:15;;;;;;;1.85;0.80;;;12.60;99.90;;;;;;5052967;28;20025;-72
2023/11/10 09:05:41;;;;;;;2.33;0.93;;;12.60;99.90;;;;;;5052712;28;20044;-72
2023/11/10 09:08:06;;;;;;;1.88;0.80;;;12.60;99.90;;;;;;5054297;28;20031;-72
2023/11/10 09:10:32;;;;;;;1.55;0.80;;;12.70;99.90;;;;;;5054588;28;20033;-71
2023/11/10 09:12:58;;;;;;;2.55;0.82;;;12.70;99.90;;;;;;5054347;28;20052;-72
2023/11/10 09:15:24;;;;;;;2.30;0.68;;;12.70;99.90;;;;;;5054485;28;20029;-72
2023/11/10 09:17:49;;;;;;;1.48;0.63;;;12.70;99.90;;;;;;5054528;28;20025;-72
2023/11/10 09:20:16;;;;;;;2.08;0.60;;;12.70;99.90;;;;;;5036263;28;20112;-72
2023/11/10 09:22:42;;;;;;;1.63;0.73;;;12.70;99.90;;;;;;5053955;28;20037;-72
2023/11/10 09:25:09;;;;;;;1.40;0.80;;;12.70;99.90;;;;;;5054604;28;20025;-72
2023/11/10 09:27:35;;;;;;;1.55;1.00;;;12.70;99.90;;;;;;5053545;28;20029;-72
2023/11/10 09:30:01;;;;;;;2.03;1.30;;;12.80;99.90;;;;;;5054822;28;20067;-72
2023/11/10 09:32:27;;;;;;;2.92;1.40;;;12.80;99.90;;;;;;5055185;28;20033;-71
2023/11/10 09:34:53;;;;;;;1.88;1.05;;;12.80;99.90;;;;;;5054753;28;20040;-71
2023/11/10 09:37:20;;;;;;;1.63;1.02;;;12.80;99.90;;;;;;5054702;28;20025;-72
2023/11/10 09:39:53;;;;;;;6.05;2.15;;;12.80;99.90;;;;;;5054727;28;20041;-71
2023/11/10 09:42:27;;;;;;;3.13;2.20;;;12.90;99.90;;;;;;5054659;28;20026;-72
2023/11/10 09:44:56;;;;;;;3.45;1.92;;;12.90;99.90;;;;;;5054146;28;20112;-71
2023/11/10 09:47:25;;;;;;;5.95;2.20;;;12.90;99.90;;;;;;5054439;28;20093;-72
2023/11/10 09:49:55;;;;;;;5.10;2.80;;;12.90;99.90;;;;;;5054389;28;20374;-71
2023/11/10 09:52:25;;;;;;;6.57;2.70;;;13.00;99.90;;;;;;5036352;28;20050;-72
2023/11/10 09:55:05;;;;;;;6.00;2.80;;;13.00;99.90;;;;;;5053986;28;20025;-72
2023/11/10 09:57:31;;;;;;;5.00;2.20;;;13.00;99.90;;;;;;5054094;28;20029;-72
2023/11/10 09:59:57;;;;;;;5.32;2.33;;;13.00;99.90;;;;;;5053233;28;20056;-72
2023/11/10 10:02:30;;;;;;;4.38;2.47;;;13.00;99.90;;;;;;5054051;28;20039;-72
2023/11/10 10:04:56;;;;;;;6.97;2.20;;;13.00;99.90;;;;;;5053710;28;20072;-72
2023/11/10 10:07:22;;;;;;;3.38;1.75;;;13.00;99.90;;;;;;5053544;28;20036;-72
2023/11/10 10:09:50;;;;;;;6.25;2.63;;;13.00;99.90;;;;;;5053433;28;20116;-72
2023/11/10 10:12:19;;;;;;;3.97;2.00;;;12.90;99.90;;;;;;5060788;23;20139;-71
2023/11/10 10:14:55;;;;;;;6.07;2.08;;;12.90;99.90;;;;;;5036024;28;20040;-71
2023/11/10 10:17:37;;;;;;;4.55;2.30;;;12.90;99.90;;;;;;5053915;28;20029;-71
2023/11/10 10:20:14;;;;;;;5.20;3.33;;;12.90;99.90;;;;;;5053263;28;20096;-72
2023/11/10 10:22:48;;;;;;;8.98;5.07;;;12.90;99.90;;;;;;5053434;28;20044;-71
2023/11/10 10:25:20;;;;;;;9.02;5.30;;;12.80;99.90;;;;;;5053522;28;20036;-72
2023/11/10 10:27:52;;;;;;;7.70;6.18;;;12.80;99.90;;;;;;5053501;28;20412;-72
2023/11/10 10:30:18;;;;;;;10.43;6.82;;;12.70;99.90;;;;;;5035181;28;20428;-72
2023/11/10 10:32:49;;;;;;;8.23;7.18;;;12.70;99.90;;;;;;5052873;28;20076;-72
2023/11/10 10:35:19;;;;;;;8.35;6.93;;;12.70;99.90;;;;;;5053127;28;20071;-71
2023/11/10 10:37:53;;;;;;;10.35;7.03;;;12.70;99.90;;;;;;5053132;28;20032;-72
2023/11/10 10:40:20;;;;;;;8.15;7.35;;;12.60;99.90;;;;;;5052517;28;20079;-72
2023/11/10 10:42:49;;;;;;;10.10;8.40;;;12.60;99.90;;;;;;5034481;28;20033;-72
2023/11/10 10:45:19;;;;;;;12.10;8.43;;;12.60;99.90;;;;;;5052955;28;20425;-72
2023/11/10 10:47:49;;;;;;;12.40;9.63;;;12.50;99.90;;;;;;5052834;28;20033;-71
2023/11/10 10:50:16;;;;;;;10.80;8.55;;;12.50;99.90;;;;;;5052752;28;20033;-71
2023/11/10 10:52:43;;;;;;;12.38;8.80;;;12.50;99.90;;;;;;5052564;28;20033;-72
2023/11/10 10:55:09;;;;;;;13.32;9.30;;;12.50;99.90;;;;;;5052354;28;20029;-72
2023/11/10 10:57:39;;;;;;;12.18;8.60;;;12.50;99.90;;;;;;5052320;28;20025;-71
2023/11/10 11:00:06;;;;;;;10.25;8.07;;;12.50;99.90;;;;;;5052560;28;20025;-72
2023/11/10 11:02:35;;;;;;;11.98;8.20;;;12.60;99.90;;;;;;5052344;28;20104;-72
2023/11/10 11:05:12;;;;;;;11.13;7.90;;;12.60;99.90;;;;;;5052288;28;20033;-72
2023/11/10 11:07:56;;;;;;;9.55;7.88;;;12.60;99.90;;;;;;5052560;28;20041;-73
2023/11/10 11:10:51;;;;;;;9.68;7.07;;;12.60;99.90;;;;;;5052848;28;20048;-72
2023/11/10 11:13:32;;;;;;;9.77;7.10;;;12.60;99.90;;;;;;5056129;28;20044;-72
2023/11/10 11:16:26;;;;;;;8.25;6.32;;;12.60;99.90;;;;;;5053795;28;20035;-73
2023/11/10 11:19:25;;;;;;;7.85;6.22;;;12.60;99.90;;;;;;5053728;28;20041;-73
2023/11/10 11:21:52;;;;;;;7.38;5.57;;;12.60;99.90;;;;;;5026602;28;20045;-70
2023/11/10 11:24:21;;;;;;;7.47;5.20;;;12.60;99.90;;;;;;5056153;28;20477;-71
2023/11/10 11:27:00;;;;;;;7.32;5.10;;;12.60;99.90;;;;;;5056315;28;20551;-71
2023/11/10 11:29:36;;;;;;;5.03;4.50;;;12.60;99.90;;;;;;5055630;28;20033;-72
2023/11/10 11:32:25;;;;;;;5.50;4.35;;;12.60;99.90;;;;;;5038159;28;20036;-73
2023/11/10 11:34:56;;;;;;;7.72;4.82;;;12.60;99.90;;;;;;5056236;28;20029;-73
2023/11/10 11:37:30;;;;;;;5.63;3.75;;;12.60;99.90;;;;;;5038713;28;20036;-72
2023/11/10 11:39:59;;;;;;;6.22;4.22;;;12.60;99.90;;;;;;5056731;28;20031;-71
2023/11/10 11:42:35;;;;;;;4.35;3.92;;;12.60;99.90;;;;;;5056660;28;20055;-70
2023/11/10 11:45:13;;;;;;;5.00;4.28;;;12.50;99.90;;;;;;5056384;28;20033;-71
2023/11/10 11:47:49;;;;;;;4.65;3.83;;;12.60;99.90;;;;;;5056392;28;20567;-71
2023/11/10 11:50:24;;;;;;;4.82;3.85;;;12.50;99.90;;;;;;5056719;28;20049;-71
2023/11/10 11:53:10;;;;;;;6.05;4.20;;;12.50;99.90;;;;;;5055019;28;20115;-72
2023/11/10 11:55:42;;;;;;;5.80;4.15;;;12.60;99.90;;;;;;5035176;28;20145;-71
2023/11/10 11:58:12;;;;;;;4.60;4.10;;;12.60;99.90;;;;;;5053341;28;20044;-71
2023/11/10 12:01:07;;;;;;;5.43;4.50;;;12.60;99.90;;;;;;5054965;28;20397;-71
2023/11/10 12:03:33;;;;;;;7.82;4.30;;;12.60;99.90;;;;;;5054643;28;20037;-72
2023/11/10 12:05:59;;;;;;;5.63;4.45;;;12.70;99.90;;;;;;5055853;28;20040;-71
2023/11/10 12:08:26;;;;;;;4.35;3.88;;;12.70;99.90;;;;;;5055545;28;20029;-72
2023/11/10 12:11:00;;;;;;;4.35;3.58;;;12.70;99.90;;;;;;5055226;28;20045;-72
2023/11/10 12:13:34;;;;;;;5.13;4.05;;;12.70;99.90;;;;;;5053746;28;20068;-72
2023/11/10 12:16:00;;;;;;;6.75;4.38;;;12.70;99.90;;;;;;5052953;28;20357;-72
2023/11/10 12:18:31;;;;;;;5.35;4.22;;;12.70;99.90;;;;;;5054042;28;20037;-72
2023/11/10 12:21:03;;;;;;;5.15;4.38;;;12.70;99.90;;;;;;5055583;28;20041;-72
2023/11/10 12:23:34;;;;;;;6.07;4.05;;;12.70;99.90;;;;;;5036997;28;20037;-72
2023/11/10 12:26:03;;;;;;;6.30;4.00;;;12.70;99.90;;;;;;5055097;28;20033;-72
2023/11/10 12:28:54;;;;;;;7.00;4.78;;;12.70;99.90;;;;;;5055079;28;20029;-72
2023/11/10 12:31:20;;;;;;;7.18;4.75;;;12.70;99.90;;;;;;5054645;28;20049;-71
2023/11/10 12:33:46;;;;;;;6.07;4.95;;;12.70;99.90;;;;;;5055082;28;20029;-72
2023/11/10 12:36:12;;;;;;;5.00;3.92;;;12.70;99.90;;;;;;5037147;28;20492;-72
2023/11/10 12:38:38;;;;;;;7.38;4.35;;;12.70;99.90;;;;;;5052955;28;20033;-73
2023/11/10 12:41:13;;;;;;;4.90;4.13;;;12.70;99.90;;;;;;5051775;28;20035;-72
2023/11/10 12:43:39;;;;;;;7.60;4.68;;;12.70;99.90;;;;;;5052093;28;20033;-72
2023/11/10 12:46:10;;;;;;;6.38;3.95;;;12.70;99.90;;;;;;5054470;28;20045;-72
2023/11/10 12:48:35;;;;;;;3.90;3.20;;;12.70;99.90;;;;;;5054661;28;20049;-72
2023/11/10 12:51:03;;;;;;;5.75;3.60;;;12.70;99.90;;;;;;5054351;28;20063;-72
2023/11/10 12:53:28;;;;;;;6.38;4.22;;;12.70;99.90;;;;;;5054424;28;20371;-72
2023/11/10 12:55:54;;;;;;;4.00;3.40;;;12.70;99.90;;;;;;5054535;28;20033;-71
2023/11/10 12:58:21;;;;;;;7.15;3.78;;;12.70;99.90;;;;;;5036587;28;20041;-72
2023/11/10 13:00:47;;;;;;;4.68;3.53;;;12.70;99.90;;;;;;5054241;28;20044;-72